Gere — LG9010 — position and weather

sailwx.info

Track history (hours):
 
Tides and Currents Weather Stations Pressure Air Temp Water Temp Dewpoint Dewpoint Depression Visibility Wind Speed Wind Dir Waves Ship Positions

Gere

Last reported at 2018-Jun-13 09:45 UTC. Time now 2018-Jul-20 12:08 UTC.
Position N 69°09' E 017°43'.
Warning: this ship's position is 37 days out of date.

Length 15 m; draft 2.2 m.

Type: Wing in ground effect craft. MMSI: 257874500.

Date/timePositionNaut miles runAvg speedWind from/ knotsBaromVisibWave heightAir tempDewpointWater temp
2018-Jun-13 09:45N 69°09' E 017°43'2 6.5
2018-Jun-13 09:30N 69°08' E 017°39'3 7.0
2018-Jun-13 09:00N 69°06' E 017°32'1 1.3
2018-Jun-13 08:30N 69°05' E 017°31'0 0.0
2018-Jun-13 08:01N 69°05' E 017°31'0 0.0
2018-Jun-13 07:30N 69°05' E 017°31'0 0.2
2018-Jun-13 07:00N 69°05' E 017°31'0 0.0
2018-Jun-13 06:30N 69°05' E 017°31'0 0.0
2018-Jun-13 06:00N 69°05' E 017°31'2 3.5
2018-Jun-13 05:30N 69°07' E 017°33'3 5.4
2018-Jun-13 05:00N 69°10' E 017°36'0 0.0
2018-Jun-13 04:31N 69°10' E 017°36'1 2.7
2018-Jun-13 04:01N 69°08' E 017°36'3 5.8
2018-Jun-13 03:30N 69°06' E 017°32'0 0.6
2018-Jun-13 03:00N 69°05' E 017°31'0 0.0
2018-Jun-13 02:30N 69°05' E 017°31'0 0.0
2018-Jun-13 02:00N 69°05' E 017°31'0 0.0
2018-Jun-13 01:30N 69°05' E 017°31'0 0.0
2018-Jun-13 01:00N 69°05' E 017°31'0 0.0
2018-Jun-13 00:31N 69°05' E 017°31'0 0.0
2018-Jun-13 00:01N 69°05' E 017°31'0 0.1
2018-Jun-12 23:31N 69°06' E 017°31'0 0.0
2018-Jun-12 23:01N 69°06' E 017°31'0 0.0
2018-Jun-12 22:31N 69°06' E 017°31'0 0.0
2018-Jun-12 22:00N 69°06' E 017°31'0 0.0
2018-Jun-12 21:30N 69°06' E 017°31'0 0.0
2018-Jun-12 21:00N 69°06' E 017°31'0 0.0
2018-Jun-12 20:30N 69°06' E 017°31'0 0.0
2018-Jun-12 19:59N 69°06' E 017°31'0 0.0
2018-Jun-12 19:31N 69°06' E 017°31'2 3.0
2018-Jun-12 19:01N 69°05' E 017°35'1 1.8
2018-Jun-12 18:30N 69°04' E 017°33'1 2.3
2018-Jun-12 18:00N 69°05' E 017°36'4 8.6
2018-Jun-12 17:30N 69°10' E 017°36'1 2.4
2018-Jun-12 17:00N 69°08' E 017°34'3 6.5
2018-Jun-12 16:31N 69°05' E 017°31'0 0.0
2018-Jun-12 16:01N 69°05' E 017°31'0 0.0
2018-Jun-12 15:30N 69°05' E 017°31'0 0.0
2018-Jun-12 15:00N 69°05' E 017°31'0 0.0
2018-Jun-12 14:30N 69°05' E 017°31'0 0.0
2018-Jun-12 13:59N 69°05' E 017°31'0 0.0
2018-Jun-12 13:31N 69°05' E 017°31'0 0.0
2018-Jun-12 13:00N 69°05' E 017°31'0 0.0
2018-Jun-12 12:31N 69°05' E 017°31'0 0.0
2018-Jun-12 12:00N 69°05' E 017°31'0 0.1
2018-Jun-12 11:31N 69°06' E 017°31'0 0.0
2018-Jun-12 11:01N 69°06' E 017°31'0 0.0
2018-Jun-12 10:30N 69°06' E 017°31'0 0.0
2018-Jun-12 10:01N 69°06' E 017°31'0 0.0
2018-Jun-12 09:30N 69°06' E 017°31'0 0.0
2018-Jun-12 09:01N 69°06' E 017°31'0 0.0
2018-Jun-12 08:31N 69°06' E 017°31'0 0.0
2018-Jun-12 08:00N 69°06' E 017°31'0 0.0
2018-Jun-12 07:31N 69°06' E 017°31'0 0.0
2018-Jun-12 07:00N 69°06' E 017°31'0 0.0
2018-Jun-12 06:31N 69°06' E 017°31'0 0.0
2018-Jun-12 06:00N 69°06' E 017°31'0 0.0
2018-Jun-12 05:31N 69°06' E 017°31'3 6.8
2018-Jun-12 05:00N 69°09' E 017°35'1 2.0
2018-Jun-12 04:31N 69°10' E 017°36'0 0.0
2018-Jun-12 04:01N 69°10' E 017°36'1 2.9
2018-Jun-12 03:31N 69°08' E 017°34'3 6.0
2018-Jun-12 03:00N 69°05' E 017°31'0 0.0
2018-Jun-12 02:31N 69°05' E 017°31'0 0.0
2018-Jun-12 01:56N 69°05' E 017°31'0 0.0
2018-Jun-12 01:30N 69°05' E 017°31'0 0.0
2018-Jun-12 01:01N 69°05' E 017°31'0 0.0
2018-Jun-12 00:30N 69°05' E 017°31'0 0.0
2018-Jun-12 00:01N 69°05' E 017°31'0 0.0
2018-Jun-11 23:20N 69°05' E 017°31'0 0.0
2018-Jun-11 23:01N 69°05' E 017°31'0 0.1
2018-Jun-11 22:31N 69°05' E 017°31'0 0.0
2018-Jun-11 22:00N 69°05' E 017°31'0 0.0
2018-Jun-11 21:31N 69°05' E 017°31'0 0.0
2018-Jun-11 21:00N 69°05' E 017°31'0 0.0
2018-Jun-11 20:31N 69°05' E 017°31'0 0.0
2018-Jun-11 20:00N 69°05' E 017°31'0 0.0
2018-Jun-11 19:30N 69°05' E 017°31'0 0.0
2018-Jun-11 19:01N 69°05' E 017°31'0 0.0
2018-Jun-11 18:30N 69°05' E 017°31'0 0.0
2018-Jun-11 18:00N 69°05' E 017°31'4 7.5
2018-Jun-11 17:30N 69°09' E 017°36'1 1.5
2018-Jun-11 17:01N 69°10' E 017°36'0 0.0
2018-Jun-11 16:31N 69°10' E 017°36'2 4.9
2018-Jun-11 16:00N 69°07' E 017°33'2 4.1
2018-Jun-11 15:31N 69°05' E 017°31'0 0.0
2018-Jun-11 15:01N 69°05' E 017°31'0 0.0
2018-Jun-11 14:31N 69°05' E 017°31'0 0.0
2018-Jun-11 14:00N 69°05' E 017°31'0 0.0
2018-Jun-11 13:30N 69°05' E 017°31'0 0.0
2018-Jun-11 13:00N 69°05' E 017°31'0 0.0
2018-Jun-11 12:31N 69°05' E 017°31'0 0.0
2018-Jun-11 12:01N 69°05' E 017°31'0 0.0
2018-Jun-11 11:31N 69°05' E 017°31'0 0.0
2018-Jun-11 11:01N 69°05' E 017°31'0 0.0
2018-Jun-11 10:31N 69°05' E 017°31'0 0.0
2018-Jun-11 10:01N 69°05' E 017°31'0 0.0
2018-Jun-11 09:31N 69°05' E 017°31'0 0.0
2018-Jun-11 09:01N 69°05' E 017°31'0 0.0
2018-Jun-11 08:30N 69°05' E 017°31'0 0.0
2018-Jun-11 08:00N 69°05' E 017°31'0 0.0
2018-Jun-11 07:31N 69°05' E 017°31'0 0.1
2018-Jun-11 07:01N 69°05' E 017°31'0 0.0
2018-Jun-11 06:31N 69°05' E 017°31'1 2.8
2018-Jun-11 06:00N 69°06' E 017°27'5 6.2
2018-Jun-11 05:12N 69°02' E 017°17'0 0.0
2018-Jun-10 17:43N 69°02' E 017°16'0 1.3
2018-Jun-10 17:30N 69°02' E 017°16'0 0.0
2018-Jun-10 16:59N 69°02' E 017°16'0 0.0
2018-Jun-10 16:26N 69°02' E 017°16'0 0.0
2018-Jun-10 16:00N 69°02' E 017°16'0 0.5
2018-Jun-10 15:10N 69°02' E 017°15'0 0.0
2018-Jun-10 14:55N 69°02' E 017°15'0 0.0
2018-Jun-10 14:00N 69°02' E 017°15'0 0.0
2018-Jun-10 13:30N 69°02' E 017°15'0 0.0
2018-Jun-10 12:59N 69°02' E 017°15'0 0.0
2018-Jun-10 12:27N 69°02' E 017°15'0 0.0
2018-Jun-10 11:53N 69°02' E 017°15'0 0.0
2018-Jun-10 11:29N 69°02' E 017°15'0 0.0
2018-Jun-10 10:54N 69°02' E 017°15'0 0.0
2018-Jun-10 10:30N 69°02' E 017°15'0 0.0
2018-Jun-10 09:58N 69°02' E 017°15'0 0.0
2018-Jun-10 09:14N 69°02' E 017°15'0 0.0
2018-Jun-10 08:57N 69°02' E 017°15'0 0.0
2018-Jun-10 08:11N 69°02' E 017°15'0 0.0
2018-Jun-10 07:38N 69°02' E 017°15'0 0.0
2018-Jun-10 07:27N 69°02' E 017°15'0 0.0
2018-Jun-10 06:49N 69°02' E 017°15'0 0.0
2018-Jun-10 06:27N 69°02' E 017°15'0 0.0
2018-Jun-10 05:56N 69°02' E 017°15'0 0.0
2018-Jun-10 05:20N 69°02' E 017°15'0 1.3
2018-Jun-10 05:00N 69°02' E 017°16'0 0.0
2018-Jun-10 04:30N 69°02' E 017°16'0 0.0
2018-Jun-10 03:59N 69°02' E 017°16'0 0.0
2018-Jun-10 03:30N 69°02' E 017°16'0 0.0
2018-Jun-10 02:59N 69°02' E 017°16'0 0.0
2018-Jun-10 02:30N 69°02' E 017°16'0 0.0
2018-Jun-10 01:59N 69°02' E 017°16'0 0.0
2018-Jun-10 01:30N 69°02' E 017°16'0 0.0
2018-Jun-10 01:00N 69°02' E 017°16'0 0.0
2018-Jun-10 00:31N 69°02' E 017°16'0 0.0
2018-Jun-10 00:01N 69°02' E 017°16'0 0.0
2018-Jun-09 23:30N 69°02' E 017°16'0 0.0
2018-Jun-09 23:00N 69°02' E 017°16'0 0.0
2018-Jun-09 22:29N 69°02' E 017°16'0 0.0
2018-Jun-09 21:58N 69°02' E 017°16'0 0.0
2018-Jun-09 21:30N 69°02' E 017°16'0 0.0
2018-Jun-09 21:00N 69°02' E 017°16'0 0.0
2018-Jun-09 20:27N 69°02' E 017°16'0 0.0
2018-Jun-09 19:59N 69°02' E 017°16'0 0.0
2018-Jun-09 19:30N 69°02' E 017°16'0 0.0
2018-Jun-09 18:58N 69°02' E 017°16'0 0.0
2018-Jun-09 18:28N 69°02' E 017°16'0 0.0
2018-Jun-09 18:00N 69°02' E 017°16'0 0.0
2018-Jun-09 17:26N 69°02' E 017°16'0 0.0
2018-Jun-09 16:57N 69°02' E 017°16'0 0.0
2018-Jun-09 16:30N 69°02' E 017°16'0 0.0
2018-Jun-09 15:35N 69°02' E 017°16'0 0.0
2018-Jun-09 14:54N 69°02' E 017°16'0 0.0
2018-Jun-09 14:26N 69°02' E 017°16'0 0.0
2018-Jun-09 14:00N 69°02' E 017°16'0 0.0
2018-Jun-09 13:27N 69°02' E 017°16'0 0.0
2018-Jun-09 13:01N 69°02' E 017°16'0 0.0
2018-Jun-09 12:30N 69°02' E 017°16'0 0.0
2018-Jun-09 11:59N 69°02' E 017°16'0 0.0
2018-Jun-09 11:30N 69°02' E 017°16'0 0.0
2018-Jun-08 14:45N 69°02' E 017°16'0 0.0
2018-Jun-08 14:26N 69°02' E 017°16'0 0.0
2018-Jun-08 10:29N 69°02' E 017°16'0 0.0
2018-Jun-08 10:00N 69°02' E 017°16'0 0.0
2018-Jun-08 09:29N 69°02' E 017°16'0 0.0
2018-Jun-08 09:01N 69°02' E 017°16'0 0.0
2018-Jun-08 08:31N 69°02' E 017°16'0 0.0
2018-Jun-08 08:00N 69°02' E 017°16'0 0.0
2018-Jun-08 07:30N 69°02' E 017°16'5 2.5
2018-Jun-08 05:37N 69°06' E 017°25'1 9.4
2018-Jun-08 05:30N 69°06' E 017°27'4 8.9
2018-Jun-08 05:01N 69°10' E 017°36'0 0.0
2018-Jun-08 04:31N 69°10' E 017°36'0 0.0
2018-Jun-08 04:01N 69°10' E 017°36'0 0.0
2018-Jun-08 03:30N 69°10' E 017°36'0 0.0
2018-Jun-08 03:01N 69°10' E 017°36'0 0.0
2018-Jun-08 02:31N 69°10' E 017°36'0 0.0
2018-Jun-08 02:01N 69°10' E 017°36'0 0.0
2018-Jun-08 01:31N 69°10' E 017°36'0 0.0
2018-Jun-08 01:01N 69°10' E 017°36'0 0.0
2018-Jun-08 00:31N 69°10' E 017°36'0 0.0
2018-Jun-08 00:01N 69°10' E 017°36'0 0.0
2018-Jun-07 23:31N 69°10' E 017°36'0 0.0
2018-Jun-07 23:01N 69°10' E 017°36'0 0.0
2018-Jun-07 22:31N 69°10' E 017°36'0 0.0
2018-Jun-07 22:01N 69°10' E 017°36'0 0.0
2018-Jun-07 21:30N 69°10' E 017°36'0 0.0
2018-Jun-07 21:01N 69°10' E 017°36'0 0.0
2018-Jun-07 20:31N 69°10' E 017°36'2 3.3
2018-Jun-07 20:01N 69°08' E 017°33'810.8
2018-Jun-07 19:13N 69°02' E 017°17'0 1.9
2018-Jun-07 19:00N 69°02' E 017°15'0 0.3
2018-Jun-07 18:28N 69°02' E 017°16'0 0.0
2018-Jun-07 17:59N 69°02' E 017°16'0 0.5
2018-Jun-07 17:29N 69°02' E 017°17'5 9.8
2018-Jun-07 16:59N 69°06' E 017°25'5 9.6
2018-Jun-07 16:31N 69°09' E 017°35'1 1.5
2018-Jun-07 15:59N 69°10' E 017°36'0 0.0
2018-Jun-07 15:30N 69°10' E 017°36'0 0.0
2018-Jun-07 15:01N 69°10' E 017°36'0 0.0
2018-Jun-07 14:31N 69°10' E 017°36'0 0.0
2018-Jun-07 14:00N 69°10' E 017°36'4 8.0
2018-Jun-07 13:31N 69°07' E 017°28'1 0.2
2018-Jun-07 05:29N 69°06' E 017°25'4 9.4
2018-Jun-07 05:01N 69°09' E 017°35'2 4.3
2018-Jun-07 04:31N 69°07' E 017°30'7 9.8
2018-Jun-07 03:48N 69°02' E 017°17'1 0.1
2018-Jun-07 00:02N 69°02' E 017°15'0 0.0
2018-Jun-06 23:52N 69°02' E 017°15'0 0.0
2018-Jun-06 23:22N 69°02' E 017°15'0 0.5
2018-Jun-06 23:00N 69°02' E 017°16'0 0.0
2018-Jun-06 22:30N 69°02' E 017°16'0 0.0
2018-Jun-06 22:01N 69°02' E 017°16'0 0.0
2018-Jun-06 21:30N 69°02' E 017°16'0 0.0
2018-Jun-06 21:00N 69°02' E 017°16'0 0.0
2018-Jun-06 20:30N 69°02' E 017°16'0 0.0
2018-Jun-06 20:01N 69°02' E 017°16'0 0.0
2018-Jun-06 19:30N 69°02' E 017°16'0 0.0
2018-Jun-06 18:59N 69°02' E 017°16'0 0.0
2018-Jun-06 18:30N 69°02' E 017°16'0 0.4
2018-Jun-06 18:00N 69°02' E 017°16'5 9.7
2018-Jun-06 17:30N 69°06' E 017°25'5 9.6
2018-Jun-06 17:01N 69°09' E 017°35'0 0.3
2018-Jun-06 16:31N 69°09' E 017°35'4 8.1
2018-Jun-06 16:01N 69°06' E 017°27'6 8.0
2018-Jun-06 15:19N 69°02' E 017°17'0 1.3
2018-Jun-06 15:01N 69°02' E 017°16'0 0.0
2018-Jun-06 14:31N 69°02' E 017°16'0 0.0
2018-Jun-06 14:00N 69°02' E 017°16'0 0.0
2018-Jun-06 13:30N 69°02' E 017°16'0 0.0
2018-Jun-06 13:00N 69°02' E 017°16'0 0.0
2018-Jun-06 12:30N 69°02' E 017°16'0 0.0
2018-Jun-06 11:59N 69°02' E 017°16'0 0.0
2018-Jun-06 11:30N 69°02' E 017°16'0 0.0
2018-Jun-06 11:00N 69°02' E 017°16'5 1.0
2018-Jun-06 05:51N 69°06' E 017°26'3 9.7
2018-Jun-06 05:31N 69°08' E 017°32'0 0.9
2018-Jun-06 05:00N 69°08' E 017°32'8 9.8
2018-Jun-06 04:13N 69°02' E 017°17'0 0.0
2018-Jun-05 18:21N 69°02' E 017°15'5 9.6
2018-Jun-05 17:51N 69°06' E 017°24'310.1
2018-Jun-05 17:31N 69°08' E 017°31'2 4.5
2018-Jun-05 17:01N 69°10' E 017°36'0 0.0
2018-Jun-05 16:31N 69°10' E 017°36'5 9.2
2018-Jun-05 16:00N 69°06' E 017°27'1 0.2
2018-Jun-05 11:14N 69°06' E 017°25'2 9.4
2018-Jun-05 11:01N 69°07' E 017°29'4 7.0
2018-Jun-05 10:31N 69°10' E 017°36'2 4.2
2018-Jun-05 10:01N 69°08' E 017°33'1 1.6
2018-Jun-05 09:31N 69°07' E 017°34'4 8.5
2018-Jun-05 09:01N 69°09' E 017°45'  
Track history (hours):
 
Tides and Currents Weather Stations Pressure Air Temp Water Temp Dewpoint Dewpoint Depression Visibility Wind Speed Wind Dir Waves Ship Positions

Gere

Last reported at 2018-Jun-13 09:45 UTC. Time now 2018-Jul-20 12:08 UTC.
Position N 69°09' E 017°43'.
Warning: this ship's position is 37 days out of date.

Length 15 m; draft 2.2 m.

Type: Wing in ground effect craft. MMSI: 257874500.

Date/timePositionNaut miles runAvg speedWind from/ knotsBaromVisibWave heightAir tempDewpointWater temp
2018-Jun-13 09:45N 69°09' E 017°43'2 6.5
2018-Jun-13 09:30N 69°08' E 017°39'3 7.0
2018-Jun-13 09:00N 69°06' E 017°32'1 1.3
2018-Jun-13 08:30N 69°05' E 017°31'0 0.0
2018-Jun-13 08:01N 69°05' E 017°31'0 0.0
2018-Jun-13 07:30N 69°05' E 017°31'0 0.2
2018-Jun-13 07:00N 69°05' E 017°31'0 0.0
2018-Jun-13 06:30N 69°05' E 017°31'0 0.0
2018-Jun-13 06:00N 69°05' E 017°31'2 3.5
2018-Jun-13 05:30N 69°07' E 017°33'3 5.4
2018-Jun-13 05:00N 69°10' E 017°36'0 0.0
2018-Jun-13 04:31N 69°10' E 017°36'1 2.7
2018-Jun-13 04:01N 69°08' E 017°36'3 5.8
2018-Jun-13 03:30N 69°06' E 017°32'0 0.6
2018-Jun-13 03:00N 69°05' E 017°31'0 0.0
2018-Jun-13 02:30N 69°05' E 017°31'0 0.0
2018-Jun-13 02:00N 69°05' E 017°31'0 0.0
2018-Jun-13 01:30N 69°05' E 017°31'0 0.0
2018-Jun-13 01:00N 69°05' E 017°31'0 0.0
2018-Jun-13 00:31N 69°05' E 017°31'0 0.0
2018-Jun-13 00:01N 69°05' E 017°31'0 0.1
2018-Jun-12 23:31N 69°06' E 017°31'0 0.0
2018-Jun-12 23:01N 69°06' E 017°31'0 0.0
2018-Jun-12 22:31N 69°06' E 017°31'0 0.0
2018-Jun-12 22:00N 69°06' E 017°31'0 0.0
2018-Jun-12 21:30N 69°06' E 017°31'0 0.0
2018-Jun-12 21:00N 69°06' E 017°31'0 0.0
2018-Jun-12 20:30N 69°06' E 017°31'0 0.0
2018-Jun-12 19:59N 69°06' E 017°31'0 0.0
2018-Jun-12 19:31N 69°06' E 017°31'2 3.0
2018-Jun-12 19:01N 69°05' E 017°35'1 1.8
2018-Jun-12 18:30N 69°04' E 017°33'1 2.3
2018-Jun-12 18:00N 69°05' E 017°36'4 8.6
2018-Jun-12 17:30N 69°10' E 017°36'1 2.4
2018-Jun-12 17:00N 69°08' E 017°34'3 6.5
2018-Jun-12 16:31N 69°05' E 017°31'0 0.0
2018-Jun-12 16:01N 69°05' E 017°31'0 0.0
2018-Jun-12 15:30N 69°05' E 017°31'0 0.0
2018-Jun-12 15:00N 69°05' E 017°31'0 0.0
2018-Jun-12 14:30N 69°05' E 017°31'0 0.0
2018-Jun-12 13:59N 69°05' E 017°31'0 0.0
2018-Jun-12 13:31N 69°05' E 017°31'0 0.0
2018-Jun-12 13:00N 69°05' E 017°31'0 0.0
2018-Jun-12 12:31N 69°05' E 017°31'0 0.0
2018-Jun-12 12:00N 69°05' E 017°31'0 0.1
2018-Jun-12 11:31N 69°06' E 017°31'0 0.0
2018-Jun-12 11:01N 69°06' E 017°31'0 0.0
2018-Jun-12 10:30N 69°06' E 017°31'0 0.0
2018-Jun-12 10:01N 69°06' E 017°31'0 0.0
2018-Jun-12 09:30N 69°06' E 017°31'0 0.0
2018-Jun-12 09:01N 69°06' E 017°31'0 0.0
2018-Jun-12 08:31N 69°06' E 017°31'0 0.0
2018-Jun-12 08:00N 69°06' E 017°31'0 0.0
2018-Jun-12 07:31N 69°06' E 017°31'0 0.0
2018-Jun-12 07:00N 69°06' E 017°31'0 0.0
2018-Jun-12 06:31N 69°06' E 017°31'0 0.0
2018-Jun-12 06:00N 69°06' E 017°31'0 0.0
2018-Jun-12 05:31N 69°06' E 017°31'3 6.8
2018-Jun-12 05:00N 69°09' E 017°35'1 2.0
2018-Jun-12 04:31N 69°10' E 017°36'0 0.0
2018-Jun-12 04:01N 69°10' E 017°36'1 2.9
2018-Jun-12 03:31N 69°08' E 017°34'3 6.0
2018-Jun-12 03:00N 69°05' E 017°31'0 0.0
2018-Jun-12 02:31N 69°05' E 017°31'0 0.0
2018-Jun-12 01:56N 69°05' E 017°31'0 0.0
2018-Jun-12 01:30N 69°05' E 017°31'0 0.0
2018-Jun-12 01:01N 69°05' E 017°31'0 0.0
2018-Jun-12 00:30N 69°05' E 017°31'0 0.0
2018-Jun-12 00:01N 69°05' E 017°31'0 0.0
2018-Jun-11 23:20N 69°05' E 017°31'0 0.0
2018-Jun-11 23:01N 69°05' E 017°31'0 0.1
2018-Jun-11 22:31N 69°05' E 017°31'0 0.0
2018-Jun-11 22:00N 69°05' E 017°31'0 0.0
2018-Jun-11 21:31N 69°05' E 017°31'0 0.0
2018-Jun-11 21:00N 69°05' E 017°31'0 0.0
2018-Jun-11 20:31N 69°05' E 017°31'0 0.0
2018-Jun-11 20:00N 69°05' E 017°31'0 0.0
2018-Jun-11 19:30N 69°05' E 017°31'0 0.0
2018-Jun-11 19:01N 69°05' E 017°31'0 0.0
2018-Jun-11 18:30N 69°05' E 017°31'0 0.0
2018-Jun-11 18:00N 69°05' E 017°31'4 7.5
2018-Jun-11 17:30N 69°09' E 017°36'1 1.5
2018-Jun-11 17:01N 69°10' E 017°36'0 0.0
2018-Jun-11 16:31N 69°10' E 017°36'2 4.9
2018-Jun-11 16:00N 69°07' E 017°33'2 4.1
2018-Jun-11 15:31N 69°05' E 017°31'0 0.0
2018-Jun-11 15:01N 69°05' E 017°31'0 0.0
2018-Jun-11 14:31N 69°05' E 017°31'0 0.0
2018-Jun-11 14:00N 69°05' E 017°31'0 0.0
2018-Jun-11 13:30N 69°05' E 017°31'0 0.0
2018-Jun-11 13:00N 69°05' E 017°31'0 0.0
2018-Jun-11 12:31N 69°05' E 017°31'0 0.0
2018-Jun-11 12:01N 69°05' E 017°31'0 0.0
2018-Jun-11 11:31N 69°05' E 017°31'0 0.0
2018-Jun-11 11:01N 69°05' E 017°31'0 0.0
2018-Jun-11 10:31N 69°05' E 017°31'0 0.0
2018-Jun-11 10:01N 69°05' E 017°31'0 0.0
2018-Jun-11 09:31N 69°05' E 017°31'0 0.0
2018-Jun-11 09:01N 69°05' E 017°31'0 0.0
2018-Jun-11 08:30N 69°05' E 017°31'0 0.0
2018-Jun-11 08:00N 69°05' E 017°31'0 0.0
2018-Jun-11 07:31N 69°05' E 017°31'0 0.1
2018-Jun-11 07:01N 69°05' E 017°31'0 0.0
2018-Jun-11 06:31N 69°05' E 017°31'1 2.8
2018-Jun-11 06:00N 69°06' E 017°27'5 6.2
2018-Jun-11 05:12N 69°02' E 017°17'0 0.0
2018-Jun-10 17:43N 69°02' E 017°16'0 1.3
2018-Jun-10 17:30N 69°02' E 017°16'0 0.0
2018-Jun-10 16:59N 69°02' E 017°16'0 0.0
2018-Jun-10 16:26N 69°02' E 017°16'0 0.0
2018-Jun-10 16:00N 69°02' E 017°16'0 0.5
2018-Jun-10 15:10N 69°02' E 017°15'0 0.0
2018-Jun-10 14:55N 69°02' E 017°15'0 0.0
2018-Jun-10 14:00N 69°02' E 017°15'0 0.0
2018-Jun-10 13:30N 69°02' E 017°15'0 0.0
2018-Jun-10 12:59N 69°02' E 017°15'0 0.0
2018-Jun-10 12:27N 69°02' E 017°15'0 0.0
2018-Jun-10 11:53N 69°02' E 017°15'0 0.0
2018-Jun-10 11:29N 69°02' E 017°15'0 0.0
2018-Jun-10 10:54N 69°02' E 017°15'0 0.0
2018-Jun-10 10:30N 69°02' E 017°15'0 0.0
2018-Jun-10 09:58N 69°02' E 017°15'0 0.0
2018-Jun-10 09:14N 69°02' E 017°15'0 0.0
2018-Jun-10 08:57N 69°02' E 017°15'0 0.0
2018-Jun-10 08:11N 69°02' E 017°15'0 0.0
2018-Jun-10 07:38N 69°02' E 017°15'0 0.0
2018-Jun-10 07:27N 69°02' E 017°15'0 0.0
2018-Jun-10 06:49N 69°02' E 017°15'0 0.0
2018-Jun-10 06:27N 69°02' E 017°15'0 0.0
2018-Jun-10 05:56N 69°02' E 017°15'0 0.0
2018-Jun-10 05:20N 69°02' E 017°15'0 1.3
2018-Jun-10 05:00N 69°02' E 017°16'0 0.0
2018-Jun-10 04:30N 69°02' E 017°16'0 0.0
2018-Jun-10 03:59N 69°02' E 017°16'0 0.0
2018-Jun-10 03:30N 69°02' E 017°16'0 0.0
2018-Jun-10 02:59N 69°02' E 017°16'0 0.0
2018-Jun-10 02:30N 69°02' E 017°16'0 0.0
2018-Jun-10 01:59N 69°02' E 017°16'0 0.0
2018-Jun-10 01:30N 69°02' E 017°16'0 0.0
2018-Jun-10 01:00N 69°02' E 017°16'0 0.0
2018-Jun-10 00:31N 69°02' E 017°16'0 0.0
2018-Jun-10 00:01N 69°02' E 017°16'0 0.0
2018-Jun-09 23:30N 69°02' E 017°16'0 0.0
2018-Jun-09 23:00N 69°02' E 017°16'0 0.0
2018-Jun-09 22:29N 69°02' E 017°16'0 0.0
2018-Jun-09 21:58N 69°02' E 017°16'0 0.0
2018-Jun-09 21:30N 69°02' E 017°16'0 0.0
2018-Jun-09 21:00N 69°02' E 017°16'0 0.0
2018-Jun-09 20:27N 69°02' E 017°16'0 0.0
2018-Jun-09 19:59N 69°02' E 017°16'0 0.0
2018-Jun-09 19:30N 69°02' E 017°16'0 0.0
2018-Jun-09 18:58N 69°02' E 017°16'0 0.0
2018-Jun-09 18:28N 69°02' E 017°16'0 0.0
2018-Jun-09 18:00N 69°02' E 017°16'0 0.0
2018-Jun-09 17:26N 69°02' E 017°16'0 0.0
2018-Jun-09 16:57N 69°02' E 017°16'0 0.0
2018-Jun-09 16:30N 69°02' E 017°16'0 0.0
2018-Jun-09 15:35N 69°02' E 017°16'0 0.0
2018-Jun-09 14:54N 69°02' E 017°16'0 0.0
2018-Jun-09 14:26N 69°02' E 017°16'0 0.0
2018-Jun-09 14:00N 69°02' E 017°16'0 0.0
2018-Jun-09 13:27N 69°02' E 017°16'0 0.0
2018-Jun-09 13:01N 69°02' E 017°16'0 0.0
2018-Jun-09 12:30N 69°02' E 017°16'0 0.0
2018-Jun-09 11:59N 69°02' E 017°16'0 0.0
2018-Jun-09 11:30N 69°02' E 017°16'0 0.0
2018-Jun-08 14:45N 69°02' E 017°16'0 0.0
2018-Jun-08 14:26N 69°02' E 017°16'0 0.0
2018-Jun-08 10:29N 69°02' E 017°16'0 0.0
2018-Jun-08 10:00N 69°02' E 017°16'0 0.0
2018-Jun-08 09:29N 69°02' E 017°16'0 0.0
2018-Jun-08 09:01N 69°02' E 017°16'0 0.0
2018-Jun-08 08:31N 69°02' E 017°16'0 0.0
2018-Jun-08 08:00N 69°02' E 017°16'0 0.0
2018-Jun-08 07:30N 69°02' E 017°16'5 2.5
2018-Jun-08 05:37N 69°06' E 017°25'1 9.4
2018-Jun-08 05:30N 69°06' E 017°27'4 8.9
2018-Jun-08 05:01N 69°10' E 017°36'0 0.0
2018-Jun-08 04:31N 69°10' E 017°36'0 0.0
2018-Jun-08 04:01N 69°10' E 017°36'0 0.0
2018-Jun-08 03:30N 69°10' E 017°36'0 0.0
2018-Jun-08 03:01N 69°10' E 017°36'0 0.0
2018-Jun-08 02:31N 69°10' E 017°36'0 0.0
2018-Jun-08 02:01N 69°10' E 017°36'0 0.0
2018-Jun-08 01:31N 69°10' E 017°36'0 0.0
2018-Jun-08 01:01N 69°10' E 017°36'0 0.0
2018-Jun-08 00:31N 69°10' E 017°36'0 0.0
2018-Jun-08 00:01N 69°10' E 017°36'0 0.0
2018-Jun-07 23:31N 69°10' E 017°36'0 0.0
2018-Jun-07 23:01N 69°10' E 017°36'0 0.0
2018-Jun-07 22:31N 69°10' E 017°36'0 0.0
2018-Jun-07 22:01N 69°10' E 017°36'0 0.0
2018-Jun-07 21:30N 69°10' E 017°36'0 0.0
2018-Jun-07 21:01N 69°10' E 017°36'0 0.0
2018-Jun-07 20:31N 69°10' E 017°36'2 3.3
2018-Jun-07 20:01N 69°08' E 017°33'810.8
2018-Jun-07 19:13N 69°02' E 017°17'0 1.9
2018-Jun-07 19:00N 69°02' E 017°15'0 0.3
2018-Jun-07 18:28N 69°02' E 017°16'0 0.0
2018-Jun-07 17:59N 69°02' E 017°16'0 0.5
2018-Jun-07 17:29N 69°02' E 017°17'5 9.8
2018-Jun-07 16:59N 69°06' E 017°25'5 9.6
2018-Jun-07 16:31N 69°09' E 017°35'1 1.5
2018-Jun-07 15:59N 69°10' E 017°36'0 0.0
2018-Jun-07 15:30N 69°10' E 017°36'0 0.0
2018-Jun-07 15:01N 69°10' E 017°36'0 0.0
2018-Jun-07 14:31N 69°10' E 017°36'0 0.0
2018-Jun-07 14:00N 69°10' E 017°36'4 8.0
2018-Jun-07 13:31N 69°07' E 017°28'1 0.2
2018-Jun-07 05:29N 69°06' E 017°25'4 9.4
2018-Jun-07 05:01N 69°09' E 017°35'2 4.3
2018-Jun-07 04:31N 69°07' E 017°30'7 9.8
2018-Jun-07 03:48N 69°02' E 017°17'1 0.1
2018-Jun-07 00:02N 69°02' E 017°15'0 0.0
2018-Jun-06 23:52N 69°02' E 017°15'0 0.0
2018-Jun-06 23:22N 69°02' E 017°15'0 0.5
2018-Jun-06 23:00N 69°02' E 017°16'0 0.0
2018-Jun-06 22:30N 69°02' E 017°16'0 0.0
2018-Jun-06 22:01N 69°02' E 017°16'0 0.0
2018-Jun-06 21:30N 69°02' E 017°16'0 0.0
2018-Jun-06 21:00N 69°02' E 017°16'0 0.0
2018-Jun-06 20:30N 69°02' E 017°16'0 0.0
2018-Jun-06 20:01N 69°02' E 017°16'0 0.0
2018-Jun-06 19:30N 69°02' E 017°16'0 0.0
2018-Jun-06 18:59N 69°02' E 017°16'0 0.0
2018-Jun-06 18:30N 69°02' E 017°16'0 0.4
2018-Jun-06 18:00N 69°02' E 017°16'5 9.7
2018-Jun-06 17:30N 69°06' E 017°25'5 9.6
2018-Jun-06 17:01N 69°09' E 017°35'0 0.3
2018-Jun-06 16:31N 69°09' E 017°35'4 8.1
2018-Jun-06 16:01N 69°06' E 017°27'6 8.0
2018-Jun-06 15:19N 69°02' E 017°17'0 1.3
2018-Jun-06 15:01N 69°02' E 017°16'0 0.0
2018-Jun-06 14:31N 69°02' E 017°16'0 0.0
2018-Jun-06 14:00N 69°02' E 017°16'0 0.0
2018-Jun-06 13:30N 69°02' E 017°16'0 0.0
2018-Jun-06 13:00N 69°02' E 017°16'0 0.0
2018-Jun-06 12:30N 69°02' E 017°16'0 0.0
2018-Jun-06 11:59N 69°02' E 017°16'0 0.0
2018-Jun-06 11:30N 69°02' E 017°16'0 0.0
2018-Jun-06 11:00N 69°02' E 017°16'5 1.0
2018-Jun-06 05:51N 69°06' E 017°26'3 9.7
2018-Jun-06 05:31N 69°08' E 017°32'0 0.9
2018-Jun-06 05:00N 69°08' E 017°32'8 9.8
2018-Jun-06 04:13N 69°02' E 017°17'0 0.0
2018-Jun-05 18:21N 69°02' E 017°15'5 9.6
2018-Jun-05 17:51N 69°06' E 017°24'310.1
2018-Jun-05 17:31N 69°08' E 017°31'2 4.5
2018-Jun-05 17:01N 69°10' E 017°36'0 0.0
2018-Jun-05 16:31N 69°10' E 017°36'5 9.2
2018-Jun-05 16:00N 69°06' E 017°27'1 0.2
2018-Jun-05 11:14N 69°06' E 017°25'2 9.4
2018-Jun-05 11:01N 69°07' E 017°29'4 7.0
2018-Jun-05 10:31N 69°10' E 017°36'2 4.2
2018-Jun-05 10:01N 69°08' E 017°33'1 1.6
2018-Jun-05 09:31N 69°07' E 017°34'4 8.5
2018-Jun-05 09:01N 69°09' E 017°45'  

Dump ship's entire track history